createdAt,value
2018-06-15T00:00:31.400Z,0
2018-06-15T00:01:11.787Z,0
2018-06-15T00:01:52.220Z,0
2018-06-15T00:02:32.613Z,0
2018-06-15T00:03:13.019Z,0
2018-06-15T00:03:53.415Z,0
2018-06-15T00:04:33.842Z,0
2018-06-15T00:05:14.314Z,0
2018-06-15T00:05:54.718Z,0
2018-06-15T00:06:35.071Z,0
2018-06-15T00:07:15.485Z,0
2018-06-15T00:07:55.867Z,0
2018-06-15T00:08:36.267Z,0
2018-06-15T00:09:16.652Z,0
2018-06-15T00:09:57.081Z,0
2018-06-15T00:10:37.471Z,0
2018-06-15T00:11:17.887Z,0
2018-06-15T00:11:58.271Z,0
2018-06-15T00:12:38.674Z,0
2018-06-15T00:13:19.102Z,0
2018-06-15T00:13:59.552Z,0
2018-06-15T00:14:39.884Z,0
2018-06-15T00:15:20.307Z,0
2018-06-15T00:16:00.754Z,0
2018-06-15T00:16:41.135Z,0
2018-06-15T00:17:21.503Z,0
2018-06-15T00:18:01.962Z,0
2018-06-15T00:18:42.354Z,0
2018-06-15T00:19:22.733Z,0
2018-06-15T00:20:03.135Z,0
2018-06-15T00:20:43.571Z,0
2018-06-15T00:21:23.999Z,0
2018-06-15T00:22:04.348Z,0
2018-06-15T00:22:44.762Z,0
2018-06-15T00:23:25.202Z,0
2018-06-15T00:24:05.600Z,0
2018-06-15T00:24:45.970Z,0
2018-06-15T00:25:26.369Z,0
2018-06-15T00:26:06.785Z,0
2018-06-15T00:26:47.173Z,0
2018-06-15T00:27:27.608Z,0
2018-06-15T00:28:07.962Z,0
2018-06-15T00:28:48.382Z,0
2018-06-15T00:29:28.768Z,0
2018-06-15T00:30:09.189Z,0
2018-06-15T00:30:49.571Z,0
2018-06-15T00:31:30.032Z,0
2018-06-15T00:32:10.395Z,0
2018-06-15T00:32:50.785Z,0
2018-06-15T00:33:31.144Z,0
2018-06-15T00:34:11.530Z,0
2018-06-15T00:34:51.930Z,0
2018-06-15T00:35:32.328Z,0
2018-06-15T00:36:12.741Z,0
2018-06-15T00:36:53.153Z,0
2018-06-15T00:37:33.609Z,0
2018-06-15T00:38:13.997Z,0
2018-06-15T00:38:54.405Z,0
2018-06-15T00:39:34.790Z,0
2018-06-15T00:40:15.194Z,0
2018-06-15T00:40:55.608Z,0
2018-06-15T00:41:36.029Z,0
2018-06-15T00:42:16.478Z,0
2018-06-15T00:42:56.893Z,0
2018-06-15T00:43:37.301Z,0
2018-06-15T00:44:17.673Z,0
2018-06-15T00:44:58.088Z,0
2018-06-15T00:45:38.517Z,0
2018-06-15T00:46:18.904Z,0
2018-06-15T00:46:59.330Z,0
2018-06-15T00:47:39.711Z,0
2018-06-15T00:48:20.116Z,0
2018-06-15T00:49:00.561Z,0
2018-06-15T00:49:40.922Z,0
2018-06-15T00:50:21.316Z,0
2018-06-15T00:51:01.685Z,0
2018-06-15T00:51:42.091Z,0
2018-06-15T00:52:22.480Z,0
2018-06-15T00:53:02.911Z,0
2018-06-15T00:53:43.260Z,0
2018-06-15T00:54:23.749Z,0
2018-06-15T00:55:04.142Z,0
2018-06-15T00:55:44.539Z,0
2018-06-15T00:56:24.948Z,0
2018-06-15T00:57:05.301Z,0
2018-06-15T00:57:45.674Z,0
2018-06-15T00:58:26.148Z,0
2018-06-15T00:59:06.494Z,0
2018-06-15T00:59:46.922Z,0
2018-06-15T01:00:27.318Z,0
2018-06-15T01:01:07.760Z,0
2018-06-15T01:01:48.172Z,0
2018-06-15T01:02:28.630Z,0
2018-06-15T01:03:08.954Z,0
2018-06-15T01:03:49.401Z,0
2018-06-15T01:04:29.762Z,0
2018-06-15T01:05:10.173Z,0
2018-06-15T01:05:50.611Z,0
2018-06-15T01:06:30.981Z,0
2018-06-15T01:07:11.373Z,0
2018-06-15T01:07:51.735Z,0
2018-06-15T01:08:32.175Z,0
2018-06-15T01:09:12.606Z,0
2018-06-15T01:09:53.016Z,0
2018-06-15T01:10:33.385Z,0
2018-06-15T01:11:13.800Z,0
2018-06-15T01:11:54.164Z,0
2018-06-15T01:12:34.636Z,0
2018-06-15T01:13:15.016Z,0
2018-06-15T01:13:55.389Z,0
2018-06-15T01:14:35.821Z,0
2018-06-15T01:15:16.173Z,0
2018-06-15T01:15:56.609Z,0
2018-06-15T01:16:36.992Z,0
2018-06-15T01:17:17.362Z,0
2018-06-15T01:17:57.738Z,0
2018-06-15T01:18:38.171Z,0
2018-06-15T01:19:18.578Z,0
2018-06-15T01:19:58.918Z,0
2018-06-15T01:20:39.350Z,0
2018-06-15T01:21:19.754Z,0
2018-06-15T01:22:00.118Z,0
2018-06-15T01:22:40.530Z,0
2018-06-15T01:23:20.934Z,0
2018-06-15T01:24:01.357Z,0
2018-06-15T01:24:41.784Z,0
2018-06-15T01:25:22.153Z,0
2018-06-15T01:26:02.559Z,0
2018-06-15T01:26:43.021Z,0
2018-06-15T01:27:23.416Z,0
2018-06-15T01:28:03.740Z,0
2018-06-15T01:28:44.152Z,0
2018-06-15T01:29:24.571Z,0
2018-06-15T01:30:05.000Z,0
2018-06-15T01:30:45.344Z,0
2018-06-15T01:31:25.837Z,0
2018-06-15T01:32:06.228Z,0
2018-06-15T01:32:46.646Z,0
2018-06-15T01:33:27.069Z,0
2018-06-15T01:34:07.433Z,0
2018-06-15T01:34:47.841Z,0
2018-06-15T01:35:28.249Z,0
2018-06-15T01:36:08.647Z,0
2018-06-15T01:36:49.074Z,0
2018-06-15T01:37:29.437Z,0
2018-06-15T01:38:09.812Z,0
2018-06-15T01:38:50.260Z,0
2018-06-15T01:39:30.633Z,0
2018-06-15T01:40:11.024Z,0
2018-06-15T01:40:51.421Z,0
2018-06-15T01:41:31.789Z,0
2018-06-15T01:42:12.167Z,0
2018-06-15T01:42:52.581Z,0
2018-06-15T01:43:32.990Z,0
2018-06-15T01:44:13.345Z,0
2018-06-15T01:44:53.805Z,0
2018-06-15T01:45:34.170Z,0
2018-06-15T01:46:14.539Z,0
2018-06-15T01:46:55.000Z,0
2018-06-15T01:47:35.390Z,0
2018-06-15T01:48:15.732Z,0
2018-06-15T01:48:56.194Z,0
2018-06-15T01:49:36.617Z,0
2018-06-15T01:50:17.014Z,0
2018-06-15T01:50:57.419Z,0
2018-06-15T01:51:37.823Z,0
2018-06-15T01:52:18.209Z,0
2018-06-15T01:52:58.673Z,0
2018-06-15T01:53:39.006Z,0
2018-06-15T01:54:19.416Z,0
2018-06-15T01:54:59.812Z,0
2018-06-15T01:55:40.249Z,0
2018-06-15T01:56:20.717Z,0
2018-06-15T01:57:01.102Z,0
2018-06-15T01:57:41.542Z,0
2018-06-15T01:58:21.929Z,0
2018-06-15T01:59:02.277Z,0
2018-06-15T01:59:42.694Z,0
2018-06-15T02:00:23.110Z,0
2018-06-15T02:01:03.542Z,0
2018-06-15T02:01:43.921Z,0
2018-06-15T02:02:24.280Z,0
2018-06-15T02:03:04.728Z,0
2018-06-15T02:03:45.129Z,0
2018-06-15T02:04:25.548Z,0
2018-06-15T02:05:05.899Z,0
2018-06-15T02:05:46.298Z,0
2018-06-15T02:06:26.680Z,0
2018-06-15T02:07:07.041Z,0
2018-06-15T02:07:47.441Z,0
2018-06-15T02:08:27.855Z,0
2018-06-15T02:09:08.323Z,0
2018-06-15T02:09:48.726Z,0
2018-06-15T02:10:29.076Z,0
2018-06-15T02:11:09.568Z,0
2018-06-15T02:11:49.953Z,0
2018-06-15T02:12:30.360Z,0
2018-06-15T02:13:10.825Z,0
2018-06-15T02:13:51.084Z,0
2018-06-15T02:14:31.532Z,0
2018-06-15T02:15:11.904Z,0
2018-06-15T02:15:52.344Z,0
2018-06-15T02:16:32.730Z,0
2018-06-15T02:17:13.126Z,0
2018-06-15T02:17:53.548Z,0
2018-06-15T02:18:33.899Z,0
2018-06-15T02:19:14.284Z,0
2018-06-15T02:19:54.694Z,0
2018-06-15T02:20:35.127Z,0
2018-06-15T02:21:15.496Z,0
2018-06-15T02:21:55.966Z,0
2018-06-15T02:22:36.304Z,0
2018-06-15T02:23:16.708Z,0
2018-06-15T02:23:57.139Z,0
2018-06-15T02:24:37.535Z,0
2018-06-15T02:25:17.935Z,0
2018-06-15T02:25:58.310Z,0
2018-06-15T02:26:38.748Z,0
2018-06-15T02:27:19.130Z,0
2018-06-15T02:27:59.553Z,0
2018-06-15T02:28:39.956Z,0
2018-06-15T02:29:20.381Z,0
2018-06-15T02:30:00.767Z,0
2018-06-15T02:30:41.152Z,0
2018-06-15T02:31:21.596Z,0
2018-06-15T02:32:02.005Z,0
2018-06-15T02:32:42.395Z,0
2018-06-15T02:33:22.789Z,0
2018-06-15T02:34:03.180Z,0
2018-06-15T02:34:43.570Z,0
2018-06-15T02:35:23.993Z,0
2018-06-15T02:36:04.424Z,0
2018-06-15T02:36:44.858Z,0
2018-06-15T02:37:25.206Z,0
2018-06-15T02:38:05.653Z,0
2018-06-15T02:38:45.998Z,0
2018-06-15T02:39:26.452Z,0
2018-06-15T02:40:06.821Z,0
2018-06-15T02:40:47.221Z,0
2018-06-15T02:41:27.615Z,0
2018-06-15T02:42:07.969Z,0
2018-06-15T02:42:48.388Z,0
2018-06-15T02:43:28.779Z,0
2018-06-15T02:44:09.200Z,0
2018-06-15T02:44:49.664Z,0
2018-06-15T02:45:30.116Z,0
2018-06-15T02:46:10.423Z,0
2018-06-15T02:46:50.814Z,0
2018-06-15T02:47:31.211Z,0
2018-06-15T02:48:11.579Z,0
2018-06-15T02:48:51.997Z,0
2018-06-15T02:49:32.445Z,0
2018-06-15T02:50:12.894Z,0
2018-06-15T02:50:53.238Z,0
2018-06-15T02:51:33.707Z,0
2018-06-15T02:52:14.099Z,0
2018-06-15T02:52:54.519Z,0
2018-06-15T02:53:34.873Z,0
2018-06-15T02:54:15.310Z,0
2018-06-15T02:54:55.698Z,0
2018-06-15T02:55:36.124Z,0
2018-06-15T02:56:16.524Z,0
2018-06-15T02:56:56.928Z,0
2018-06-15T02:57:37.303Z,0
2018-06-15T02:58:17.714Z,0
2018-06-15T02:58:58.127Z,0
2018-06-15T02:59:38.485Z,0
2018-06-15T03:00:18.937Z,0
2018-06-15T03:00:59.319Z,0
2018-06-15T03:01:39.747Z,0
2018-06-15T03:02:20.117Z,0
2018-06-15T03:03:00.524Z,0
2018-06-15T03:03:40.949Z,0
2018-06-15T03:04:21.392Z,0
2018-06-15T03:05:01.751Z,0
2018-06-15T03:05:42.132Z,0
2018-06-15T03:06:22.554Z,0
2018-06-15T03:07:02.935Z,0
2018-06-15T03:07:43.325Z,0
2018-06-15T03:08:23.747Z,0
2018-06-15T03:09:04.135Z,0
2018-06-15T03:09:44.602Z,0
2018-06-15T03:10:24.968Z,0
2018-06-15T03:11:05.455Z,0
2018-06-15T03:11:45.792Z,0
2018-06-15T03:12:26.208Z,0
2018-06-15T03:13:06.604Z,0
2018-06-15T03:13:46.993Z,0
2018-06-15T03:14:27.411Z,0
2018-06-15T03:15:07.778Z,0
2018-06-15T03:15:48.177Z,0
2018-06-15T03:16:28.566Z,0
2018-06-15T03:17:09.050Z,0
2018-06-15T03:17:49.425Z,0
2018-06-15T03:18:29.796Z,0
2018-06-15T03:19:10.186Z,0
2018-06-15T03:19:50.581Z,0
2018-06-15T03:20:30.973Z,0
2018-06-15T03:21:11.411Z,0
2018-06-15T03:21:51.736Z,0
2018-06-15T03:22:32.171Z,0
2018-06-15T03:23:12.526Z,0
2018-06-15T03:23:52.956Z,0
2018-06-15T03:24:33.392Z,0
2018-06-15T03:25:13.769Z,0
2018-06-15T03:25:54.225Z,0
2018-06-15T03:26:34.649Z,0
2018-06-15T03:27:15.050Z,0
2018-06-15T03:27:55.443Z,0
2018-06-15T03:28:35.854Z,0
2018-06-15T03:29:16.312Z,0
2018-06-15T03:29:56.681Z,0
2018-06-15T03:30:37.061Z,0
2018-06-15T03:31:17.554Z,0
2018-06-15T03:31:57.867Z,0
2018-06-15T03:32:38.323Z,0
2018-06-15T03:33:18.704Z,0
2018-06-15T03:33:59.128Z,0
2018-06-15T03:34:39.537Z,0
2018-06-15T03:35:19.956Z,0
2018-06-15T03:36:00.353Z,0
2018-06-15T03:36:40.781Z,0
2018-06-15T03:37:21.201Z,0
2018-06-15T03:38:01.546Z,0
2018-06-15T03:38:41.994Z,0
2018-06-15T03:39:22.380Z,0
2018-06-15T03:40:02.778Z,0
2018-06-15T03:40:43.168Z,0
2018-06-15T03:41:23.506Z,0
2018-06-15T03:42:03.952Z,0
2018-06-15T03:42:44.318Z,0
2018-06-15T03:43:24.769Z,0
2018-06-15T03:44:05.148Z,0
2018-06-15T03:44:45.537Z,0
2018-06-15T03:45:25.931Z,0
2018-06-15T03:46:06.361Z,0
2018-06-15T03:46:46.762Z,0
2018-06-15T03:47:27.118Z,0
2018-06-15T03:48:07.540Z,0
2018-06-15T03:48:47.940Z,0
2018-06-15T03:49:28.384Z,0
2018-06-15T03:50:08.742Z,0
2018-06-15T03:50:49.175Z,0
2018-06-15T03:51:29.640Z,0
2018-06-15T03:52:09.938Z,0
2018-06-15T03:52:50.335Z,0
2018-06-15T03:53:30.753Z,0
2018-06-15T03:54:11.135Z,0
2018-06-15T03:54:51.543Z,0
2018-06-15T03:55:31.935Z,0
2018-06-15T03:56:12.377Z,0
2018-06-15T03:56:52.811Z,0
2018-06-15T03:57:33.227Z,0
2018-06-15T03:58:13.645Z,0
2018-06-15T03:58:54.054Z,0
2018-06-15T03:59:34.465Z,0
2018-06-15T04:00:14.916Z,0
2018-06-15T04:00:55.315Z,0
2018-06-15T04:01:35.711Z,0
2018-06-15T04:02:16.084Z,0
2018-06-15T04:02:56.537Z,0
2018-06-15T04:03:36.944Z,0
2018-06-15T04:48:24.514Z,5
2018-06-15T04:49:04.865Z,5
2018-06-15T04:49:45.244Z,5
2018-06-15T04:50:25.676Z,5
2018-06-15T04:51:06.043Z,5
2018-06-15T04:51:46.494Z,5
2018-06-15T04:52:26.884Z,5
2018-06-15T04:53:07.317Z,5
2018-06-15T04:53:47.713Z,10
2018-06-15T04:54:28.122Z,10
2018-06-15T04:55:08.606Z,10
2018-06-15T04:55:48.946Z,10
2018-06-15T04:56:29.418Z,10
2018-06-15T04:57:09.812Z,10
2018-06-15T04:57:50.166Z,10
2018-06-15T04:58:30.557Z,10
2018-06-15T04:59:10.967Z,10
2018-06-15T04:59:51.400Z,10
2018-06-15T05:00:31.767Z,10
2018-06-15T05:01:12.163Z,10
2018-06-15T05:01:52.584Z,10
2018-06-15T05:02:33.054Z,15
2018-06-15T05:03:13.490Z,15
2018-06-15T05:03:53.859Z,15
2018-06-15T05:04:34.353Z,15
2018-06-15T05:05:14.716Z,15
2018-06-15T05:05:55.105Z,15
2018-06-15T05:06:35.467Z,15
2018-06-15T05:07:15.878Z,15
2018-06-15T05:07:56.316Z,15
2018-06-15T05:08:36.731Z,15
2018-06-15T05:09:17.252Z,15
2018-06-15T05:09:57.546Z,20
2018-06-15T05:10:37.954Z,20
2018-06-15T05:11:18.388Z,20
2018-06-15T05:11:58.877Z,20
2018-06-15T05:12:39.289Z,20
2018-06-15T05:13:19.915Z,20
2018-06-15T05:14:00.361Z,20
2018-06-15T05:14:40.766Z,25
2018-06-15T05:15:21.229Z,25
2018-06-15T05:16:02.930Z,30
2018-06-15T05:16:43.341Z,30
2018-06-15T05:17:23.868Z,35
2018-06-15T05:18:04.359Z,35
2018-06-15T05:18:44.742Z,35
2018-06-15T05:19:25.166Z,40
2018-06-15T05:20:05.572Z,40
2018-06-15T05:20:45.927Z,45
2018-06-15T05:21:26.391Z,45
2018-06-15T05:22:06.871Z,45
2018-06-15T05:22:47.446Z,45
2018-06-15T05:23:27.832Z,50
2018-06-15T05:24:08.229Z,55
2018-06-15T05:24:48.649Z,70
2018-06-15T05:25:29.103Z,135
2018-06-15T05:26:09.494Z,105
2018-06-15T05:26:49.961Z,65
2018-06-15T05:27:30.358Z,65
2018-06-15T05:28:10.818Z,70
2018-06-15T05:28:51.238Z,70
2018-06-15T05:29:31.696Z,70
2018-06-15T05:30:12.091Z,80
2018-06-15T05:30:52.540Z,65
2018-06-15T05:31:32.991Z,65
2018-06-15T05:32:13.410Z,65
2018-06-15T05:32:53.791Z,65
2018-06-15T05:33:34.196Z,65
2018-06-15T05:34:14.605Z,65
2018-06-15T05:34:55.054Z,60
2018-06-15T05:35:35.499Z,65
2018-06-15T05:36:15.930Z,70
2018-06-15T05:36:56.359Z,70
2018-06-15T05:37:36.725Z,75
2018-06-15T05:38:17.174Z,100
2018-06-15T05:38:57.719Z,105
2018-06-15T05:39:38.145Z,80
2018-06-15T05:40:18.569Z,75
2018-06-15T05:40:58.997Z,80
2018-06-15T05:41:39.396Z,80
2018-06-15T05:42:20.672Z,85
2018-06-15T05:43:01.097Z,130
2018-06-15T05:43:41.509Z,95
2018-06-15T05:44:21.953Z,120
2018-06-15T05:45:02.383Z,85
2018-06-15T05:45:42.775Z,85
2018-06-15T05:46:23.325Z,90
2018-06-15T05:47:03.795Z,105
2018-06-15T05:47:45.354Z,105
2018-06-15T05:48:25.100Z,120
2018-06-15T05:49:07.264Z,110
2018-06-15T05:49:46.655Z,120
2018-06-15T05:50:27.128Z,120
2018-06-15T05:51:07.515Z,115
2018-06-15T05:51:47.972Z,130
2018-06-15T05:52:28.350Z,180
2018-06-15T05:53:08.812Z,260
2018-06-15T05:53:49.222Z,265
2018-06-15T05:54:29.585Z,280
2018-06-15T05:55:10.077Z,385
2018-06-15T05:55:50.482Z,390
2018-06-15T05:56:30.916Z,185
2018-06-15T05:57:11.316Z,190
2018-06-15T05:57:51.933Z,160
2018-06-15T05:58:32.449Z,170
2018-06-15T05:59:12.865Z,385
2018-06-15T05:59:53.284Z,235
2018-06-15T06:00:33.717Z,175
2018-06-15T06:01:14.196Z,170
2018-06-15T06:01:54.794Z,180
2018-06-15T06:02:35.260Z,175
2018-06-15T06:03:15.689Z,175
2018-06-15T06:03:56.207Z,160
2018-06-15T06:04:36.489Z,320
2018-06-15T06:05:17.105Z,165
2018-06-15T06:05:57.641Z,135
2018-06-15T06:06:38.127Z,180
2018-06-15T06:07:18.636Z,135
2018-06-15T06:07:59.102Z,105
2018-06-15T06:08:39.568Z,180
2018-06-15T06:09:19.986Z,200
2018-06-15T06:10:00.435Z,155
2018-06-15T06:10:40.909Z,145
2018-06-15T06:11:21.239Z,135
2018-06-15T06:12:08.574Z,210
2018-06-15T06:13:03.831Z,135
2018-06-15T06:16:52.037Z,195
2018-06-15T06:17:32.458Z,315
2018-06-15T06:18:13.575Z,210
2018-06-15T06:18:53.969Z,225
2018-06-15T06:19:34.377Z,185
2018-06-15T06:20:14.806Z,175
2018-06-15T06:20:55.245Z,235
2018-06-15T06:21:35.597Z,225
2018-06-15T06:22:15.973Z,100
2018-06-15T06:22:56.440Z,100
2018-06-15T06:23:36.823Z,110
2018-06-15T06:24:17.184Z,110
2018-06-15T06:24:57.625Z,105
2018-06-15T06:25:38.056Z,95
2018-06-15T06:26:18.426Z,90
2018-06-15T06:26:58.865Z,95
2018-06-15T06:27:39.270Z,95
2018-06-15T06:28:19.696Z,95
2018-06-15T06:29:00.110Z,100
2018-06-15T06:29:40.492Z,90
2018-06-15T06:30:20.983Z,75
2018-06-15T06:31:01.328Z,70
2018-06-15T06:31:41.783Z,70
2018-06-15T06:32:22.202Z,75
2018-06-15T06:33:02.729Z,85
2018-06-15T06:33:43.017Z,115
2018-06-15T06:34:23.486Z,130
2018-06-15T06:35:03.929Z,130
2018-06-15T06:35:44.363Z,105
2018-06-15T06:36:24.815Z,85
2018-06-15T06:37:05.182Z,80
2018-06-15T06:37:45.877Z,80
2018-06-15T06:43:09.351Z,95
2018-06-15T06:43:49.806Z,100
2018-06-15T06:44:30.167Z,90
2018-06-15T06:45:10.579Z,85
2018-06-15T06:45:51.033Z,75
2018-06-15T06:46:31.393Z,65
2018-06-15T06:47:11.840Z,60
2018-06-15T06:47:52.257Z,80
2018-06-15T06:48:32.663Z,90
2018-06-15T06:49:13.062Z,75
2018-06-15T06:49:53.449Z,65
2018-06-15T06:50:33.899Z,60
2018-06-15T06:51:29.052Z,55
2018-06-15T06:52:09.434Z,55
2018-06-15T06:52:49.864Z,55
2018-06-15T06:53:30.264Z,55
2018-06-15T06:54:13.769Z,55
2018-06-15T06:55:24.573Z,60
2018-06-15T06:56:04.990Z,60
2018-06-15T06:56:45.432Z,60
2018-06-15T06:57:25.831Z,65
2018-06-15T06:58:06.277Z,70
2018-06-15T06:58:46.683Z,75
2018-06-15T06:59:41.633Z,75
2018-06-15T07:01:54.643Z,80
2018-06-15T07:02:36.182Z,80
2018-06-15T07:06:18.972Z,70
2018-06-15T07:06:59.334Z,70
2018-06-15T07:07:39.740Z,70
2018-06-15T07:08:20.144Z,80
2018-06-15T07:09:00.532Z,85
2018-06-15T07:09:41.021Z,70
2018-06-15T07:10:21.411Z,65
2018-06-15T07:11:01.844Z,65
2018-06-15T07:11:42.288Z,65
2018-06-15T07:12:22.746Z,70
2018-06-15T07:13:03.246Z,80
2018-06-15T07:15:16.222Z,100
2018-06-15T07:15:56.746Z,100
2018-06-15T07:16:37.114Z,95
2018-06-15T07:17:17.544Z,90
2018-06-15T07:17:57.934Z,90
2018-06-15T07:18:38.345Z,90
2018-06-15T07:19:34.224Z,85
2018-06-15T07:20:13.854Z,90
2018-06-15T07:20:54.295Z,90
2018-06-15T07:21:34.736Z,100
2018-06-15T07:22:15.235Z,105
2018-06-15T07:22:56.730Z,120
2018-06-15T07:23:51.244Z,125
2018-06-15T07:26:41.035Z,150
2018-06-15T07:27:21.469Z,235
2018-06-15T07:28:01.895Z,205
2018-06-15T07:31:37.971Z,290
2018-06-15T07:32:18.357Z,250
2018-06-15T07:32:58.746Z,150
2018-06-15T07:33:39.181Z,130
2018-06-15T07:34:19.569Z,125
2018-06-15T07:34:59.998Z,180
2018-06-15T07:35:40.617Z,125
2018-06-15T07:36:20.990Z,110
2018-06-15T07:37:01.491Z,100
2018-06-15T07:37:41.943Z,90
2018-06-15T07:38:22.387Z,90
2018-06-15T07:39:02.757Z,80
2018-06-15T07:39:43.145Z,85
2018-06-15T07:40:23.557Z,95
2018-06-15T07:41:03.968Z,175
2018-06-15T07:41:44.372Z,140
2018-06-15T07:42:24.852Z,185
2018-06-15T07:43:05.301Z,145
2018-06-15T07:43:45.707Z,150
2018-06-15T07:44:26.076Z,165
2018-06-15T07:45:06.572Z,195
2018-06-15T07:45:47.157Z,185
2018-06-15T07:46:27.560Z,190
2018-06-15T07:47:07.952Z,185
2018-06-15T07:47:49.078Z,130
2018-06-15T07:48:29.096Z,175
2018-06-15T07:49:09.529Z,145
2018-06-15T07:49:50.036Z,150
2018-06-15T07:50:30.493Z,175
2018-06-15T07:51:10.973Z,175
2018-06-15T07:51:52.218Z,170
2018-06-15T07:52:32.142Z,175
2018-06-15T07:53:12.482Z,180
2018-06-15T07:53:53.515Z,170
2018-06-15T07:54:33.999Z,135
2018-06-15T07:55:14.482Z,120
2018-06-15T07:55:54.900Z,120
2018-06-15T07:56:35.346Z,135
2018-06-15T07:57:15.883Z,130
2018-06-15T07:57:56.301Z,120
2018-06-15T07:58:36.677Z,120
2018-06-15T07:59:17.092Z,110
2018-06-15T07:59:57.464Z,115
2018-06-15T08:00:38.016Z,135
2018-06-15T08:01:18.347Z,135
2018-06-15T08:01:58.767Z,175
2018-06-15T08:02:39.136Z,130
2018-06-15T08:03:19.600Z,155
2018-06-15T08:04:00.023Z,170
2018-06-15T08:04:40.445Z,170
2018-06-15T08:05:21.740Z,155
2018-06-15T08:06:01.916Z,165
2018-06-15T08:06:42.392Z,160
2018-06-15T08:07:23.092Z,160
2018-06-15T08:08:03.559Z,160
2018-06-15T08:08:43.964Z,165
2018-06-15T08:09:24.385Z,170
2018-06-15T08:10:05.099Z,170
2018-06-15T08:10:45.479Z,170
2018-06-15T08:11:25.911Z,165
2018-06-15T08:12:06.356Z,145
2018-06-15T08:12:46.824Z,145
2018-06-15T08:13:27.498Z,160
2018-06-15T08:14:08.129Z,160
2018-06-15T08:14:49.229Z,160
2018-06-15T08:17:04.776Z,110
2018-06-15T08:17:47.379Z,100
2018-06-15T08:18:27.909Z,95
2018-06-15T08:19:08.233Z,100
2018-06-15T08:19:48.699Z,85
2018-06-15T08:20:29.194Z,85
2018-06-15T08:21:09.532Z,85
2018-06-15T08:21:49.969Z,90
2018-06-15T08:22:30.397Z,90
2018-06-15T08:23:10.885Z,95
2018-06-15T08:23:51.311Z,110
2018-06-15T08:24:32.092Z,95
2018-06-15T08:25:12.200Z,110
2018-06-15T08:25:52.602Z,135
2018-06-15T08:26:33.048Z,125
2018-06-15T08:27:13.464Z,135
2018-06-15T08:27:53.847Z,130
2018-06-15T08:28:34.433Z,130
2018-06-15T08:29:14.947Z,135
2018-06-15T08:29:56.000Z,120
2018-06-15T08:30:37.288Z,120
2018-06-15T08:31:17.788Z,115
2018-06-15T08:31:58.188Z,115
2018-06-15T08:32:38.745Z,125
2018-06-15T08:33:20.245Z,150
2018-06-15T08:34:00.903Z,150
2018-06-15T08:34:41.831Z,145
2018-06-15T08:35:22.012Z,140
2018-06-15T08:36:02.697Z,135
2018-06-15T08:36:43.224Z,130
2018-06-15T08:37:24.544Z,125
2018-06-15T08:38:04.931Z,125
2018-06-15T08:38:45.359Z,125
2018-06-15T08:39:25.848Z,125
2018-06-15T08:40:06.227Z,125
2018-06-15T08:40:46.768Z,125
2018-06-15T08:41:27.071Z,130
2018-06-15T08:42:07.595Z,130
2018-06-15T08:42:48.201Z,130
2018-06-15T08:45:17.868Z,125
2018-06-15T08:45:58.313Z,125
2018-06-15T08:46:38.732Z,120
2018-06-15T08:47:19.139Z,120
2018-06-15T08:47:59.568Z,120
2018-06-15T08:48:39.985Z,120
2018-06-15T08:49:20.463Z,115
2018-06-15T08:50:00.948Z,120
2018-06-15T08:50:41.378Z,115
2018-06-15T08:51:21.828Z,115
2018-06-15T08:52:02.259Z,115
2018-06-15T08:54:15.180Z,110
2018-06-15T08:54:55.614Z,110
2018-06-15T08:55:36.065Z,110
2018-06-15T08:56:16.424Z,110
2018-06-15T08:56:56.869Z,115
2018-06-15T08:57:37.283Z,115
2018-06-15T08:58:17.657Z,115
2018-06-15T08:59:12.991Z,115
2018-06-15T08:59:53.363Z,115
2018-06-15T09:00:33.859Z,110
2018-06-15T09:03:02.058Z,110
2018-06-15T09:03:42.751Z,105
2018-06-15T09:04:23.139Z,105
2018-06-15T09:05:04.520Z,115
2018-06-15T09:05:44.338Z,115
2018-06-15T09:06:24.933Z,115
2018-06-15T09:07:05.308Z,115
2018-06-15T09:07:45.744Z,115
2018-06-15T09:08:26.236Z,110
2018-06-15T09:09:06.629Z,100
2018-06-15T09:09:47.082Z,105
2018-06-15T09:10:27.503Z,80
2018-06-15T09:11:08.201Z,75
2018-06-15T09:11:48.593Z,75
2018-06-15T09:12:29.037Z,75
2018-06-15T09:13:09.764Z,75
2018-06-15T09:13:50.215Z,100
2018-06-15T09:14:30.735Z,85
2018-06-15T09:15:12.031Z,85
2018-06-15T09:15:51.883Z,90
2018-06-15T09:16:32.279Z,90
2018-06-15T09:17:12.947Z,85
2018-06-15T09:17:53.564Z,85
2018-06-15T09:18:34.672Z,90
2018-06-15T09:19:15.118Z,115
2018-06-15T09:19:55.544Z,115
2018-06-15T09:20:35.920Z,115
2018-06-15T09:21:16.300Z,85
2018-06-15T09:21:56.784Z,85
2018-06-15T09:22:37.144Z,100
2018-06-15T09:23:17.545Z,80
2018-06-15T09:23:57.965Z,100
2018-06-15T09:24:38.391Z,100
2018-06-15T09:25:18.812Z,100
2018-06-15T09:25:59.253Z,105
2018-06-15T09:26:39.641Z,105
2018-06-15T09:27:20.233Z,105
2018-06-15T09:28:00.710Z,110
2018-06-15T09:28:41.092Z,110
2018-06-15T09:29:22.045Z,105
2018-06-15T09:30:01.953Z,105
2018-06-15T09:30:45.060Z,105
2018-06-15T09:31:25.454Z,105
2018-06-15T09:32:05.896Z,70
2018-06-15T09:32:46.299Z,65
2018-06-15T09:33:26.721Z,65
2018-06-15T09:34:27.881Z,65
2018-06-15T09:35:31.925Z,70
2018-06-15T09:36:26.977Z,105
2018-06-15T09:37:12.820Z,105
2018-06-15T09:37:53.105Z,105
2018-06-15T09:39:04.717Z,105
2018-06-15T09:45:40.227Z,100
2018-06-15T09:46:26.913Z,105
2018-06-15T09:47:07.293Z,100
2018-06-15T09:47:48.472Z,80
2018-06-15T09:48:42.700Z,90
2018-06-15T09:49:31.695Z,75
2018-06-15T09:50:12.090Z,75
2018-06-15T09:50:52.533Z,75
2018-06-15T09:51:44.883Z,105
2018-06-15T09:52:40.390Z,105
2018-06-15T09:53:35.192Z,110
2018-06-15T09:54:30.557Z,110
2018-06-15T09:55:40.696Z,115
2018-06-15T09:57:58.817Z,90
2018-06-15T09:58:54.108Z,110
2018-06-15T09:59:49.079Z,90
2018-06-15T10:00:32.732Z,90
2018-06-15T10:01:13.212Z,90
2018-06-15T10:01:53.566Z,90
2018-06-15T10:02:33.954Z,90
2018-06-15T10:03:14.363Z,90
2018-06-15T10:03:54.864Z,85
2018-06-15T10:04:42.076Z,80
2018-06-15T10:42:56.865Z,65
2018-06-15T10:43:42.205Z,65
2018-06-15T10:44:34.117Z,65
2018-06-15T10:45:14.530Z,65
2018-06-15T10:45:54.876Z,70
2018-06-15T10:46:35.366Z,70
2018-06-15T10:47:15.764Z,70
2018-06-15T10:47:56.187Z,70
2018-06-15T10:48:36.570Z,75
2018-06-15T10:49:16.941Z,75
2018-06-15T10:49:57.317Z,75
2018-06-15T10:50:37.789Z,80
2018-06-15T10:51:18.235Z,80
2018-06-15T10:51:58.685Z,80
2018-06-15T10:52:39.110Z,75
2018-06-15T10:53:19.544Z,75
2018-06-15T10:53:59.962Z,75
2018-06-15T10:54:40.362Z,80
2018-06-15T10:55:20.754Z,80
2018-06-15T10:56:01.265Z,90
2018-06-15T10:56:41.624Z,85
2018-06-15T10:57:22.078Z,80
2018-06-15T10:58:02.513Z,80
2018-06-15T10:58:42.917Z,80
2018-06-15T10:59:23.468Z,75
2018-06-15T11:00:03.863Z,70
2018-06-15T11:00:44.240Z,70
2018-06-15T11:01:24.689Z,70
2018-06-15T11:02:05.076Z,65
2018-06-15T11:02:45.502Z,65
2018-06-15T11:03:25.878Z,65
2018-06-15T11:04:06.275Z,65
2018-06-15T11:04:46.687Z,65
2018-06-15T11:05:27.125Z,65
2018-06-15T11:06:07.538Z,65
2018-06-15T11:06:47.971Z,75
2018-06-15T11:07:28.340Z,100
2018-06-15T11:08:08.782Z,105
2018-06-15T11:08:49.192Z,105
2018-06-15T11:09:29.587Z,100
2018-06-15T11:10:10.004Z,100
2018-06-15T11:10:50.412Z,105
2018-06-15T11:11:30.841Z,105
2018-06-15T11:12:11.235Z,100
2018-06-15T11:12:51.723Z,100
2018-06-15T11:13:32.118Z,105
2018-06-15T11:14:12.555Z,105
2018-06-15T11:14:52.956Z,100
2018-06-15T11:15:33.364Z,100
2018-06-15T11:16:13.812Z,95
2018-06-15T11:16:54.249Z,100
2018-06-15T11:17:34.598Z,100
2018-06-15T11:18:15.020Z,70
2018-06-15T11:18:55.457Z,95
2018-06-15T11:19:35.837Z,95
2018-06-15T11:20:16.242Z,80
2018-06-15T11:20:56.690Z,85
2018-06-15T11:21:37.160Z,85
2018-06-15T11:22:17.552Z,80
2018-06-15T11:22:57.995Z,85
2018-06-15T11:23:38.373Z,75
2018-06-15T11:24:18.807Z,70
2018-06-15T11:24:59.205Z,70
2018-06-15T11:25:39.632Z,70
2018-06-15T11:26:20.015Z,70
2018-06-15T11:27:00.448Z,70
2018-06-15T11:27:40.905Z,65
2018-06-15T11:28:21.373Z,65
2018-06-15T11:29:01.832Z,65
2018-06-15T11:29:42.247Z,60
2018-06-15T11:33:54.898Z,65
2018-06-15T11:34:35.293Z,65
2018-06-15T11:35:15.699Z,65
2018-06-15T11:35:56.119Z,65
2018-06-15T11:36:36.526Z,70
2018-06-15T11:37:16.887Z,70
2018-06-15T11:37:57.430Z,70
2018-06-15T11:38:37.780Z,70
2018-06-15T11:39:18.166Z,90
2018-06-15T11:39:58.556Z,100
2018-06-15T11:40:39.024Z,100
2018-06-15T11:41:19.627Z,105
2018-06-15T11:41:59.824Z,100
2018-06-15T11:42:40.249Z,100
2018-06-15T11:43:20.648Z,90
2018-06-15T11:44:01.046Z,110
2018-06-15T11:44:41.461Z,110